Terminal Aerodrome Forecast
Issued by NWS

Home | Current Version | Previous Version | Text Only | Print | Product List | Glossary On
Versions: 1 2 3 4 5 6 7 8 9 10 11 12 13 14 15 16 17
000
FTUS46 KOTX 310532
TAFSFF
TAF
KSFF 310532Z 3106/0106 09003KT P6SM BKN100 OVC150
     FM310900 13004KT P6SM BKN100 OVC120
     FM311600 17003KT P6SM BKN080 OVC100
     FM312100 22010KT P6SM -RA BKN045 OVC060
     FM312300 23012G18KT P6SM -RA BKN025 OVC040
     FM010400 23004KT P6SM SCT020 BKN040 OVC060=

USA.gov is the U.S. government's official web portal to all federal, state and local government web resources and services.